createdAt,value
2022-08-19T00:04:58.988Z,8.97
2022-08-19T00:10:00.786Z,8.43
2022-08-19T00:15:26.639Z,7.60
2022-08-19T00:20:28.546Z,7.43
2022-08-19T00:25:30.849Z,8.40
2022-08-19T00:30:32.693Z,7.20
2022-08-19T00:35:41.055Z,8.63
2022-08-19T00:40:56.709Z,8.17
2022-08-19T00:45:59.366Z,7.67
2022-08-19T00:51:02.243Z,7.50
2022-08-19T00:56:07.272Z,10.40
2022-08-19T01:01:09.419Z,7.53
2022-08-19T01:06:14.120Z,7.37
2022-08-19T01:11:22.116Z,10.50
2022-08-19T01:16:25.401Z,7.97
2022-08-19T01:21:28.489Z,8.37
2022-08-19T01:26:31.329Z,8.80
2022-08-19T01:31:33.529Z,8.50
2022-08-19T01:36:46.416Z,7.83
2022-08-19T01:41:48.944Z,9.53
2022-08-19T01:46:51.759Z,8.97
2022-08-19T01:51:54.799Z,8.57
2022-08-19T01:57:04.149Z,9.73
2022-08-19T02:02:09.817Z,9.40
2022-08-19T02:07:11.595Z,11.57
2022-08-19T02:12:13.518Z,10.97
2022-08-19T02:17:15.363Z,11.70
2022-08-19T02:22:17.076Z,11.17
2022-08-19T02:27:18.758Z,13.07
2022-08-19T02:32:20.896Z,11.30
2022-08-19T02:37:41.445Z,9.87
2022-08-19T02:42:52.579Z,10.67
2022-08-19T02:47:57.880Z,13.87
2022-08-19T02:53:14.814Z,11.30
2022-08-19T02:58:27.331Z,12.23
2022-08-19T03:03:39.256Z,11.23
2022-08-19T03:08:55.027Z,12.20
2022-08-19T03:14:12.396Z,12.23
2022-08-19T03:19:22.020Z,12.40
2022-08-19T03:24:33.620Z,12.50
2022-08-19T03:29:43.233Z,12.77
2022-08-19T03:34:59.177Z,11.60
2022-08-19T03:40:02.490Z,12.67
2022-08-19T03:45:17.265Z,12.97
2022-08-19T03:50:32.170Z,12.17
2022-08-19T03:55:33.986Z,15.17
2022-08-19T04:00:48.040Z,16.97
2022-08-19T04:05:51.957Z,13.80
2022-08-19T04:10:54.396Z,15.50
2022-08-19T04:16:06.547Z,13.20
2022-08-19T04:21:22.961Z,13.23
2022-08-19T04:26:27.098Z,13.90
2022-08-19T04:31:31.706Z,13.90
2022-08-19T04:36:39.270Z,13.87
2022-08-19T04:42:00.904Z,14.00
2022-08-19T04:47:11.264Z,16.63
2022-08-19T04:52:13.238Z,15.47
2022-08-19T04:57:15.040Z,13.40
2022-08-19T05:02:17.055Z,15.40
2022-08-19T05:07:20.997Z,15.77
2022-08-19T05:12:26.761Z,14.57
2022-08-19T05:17:37.495Z,16.63
2022-08-19T05:22:40.423Z,16.93
2022-08-19T05:27:43.172Z,16.83
2022-08-19T05:32:45.224Z,16.87
2022-08-19T05:37:46.986Z,15.03
2022-08-19T05:43:16.712Z,14.63
2022-08-19T05:48:21.365Z,16.97
2022-08-19T05:53:23.111Z,22.57
2022-08-19T05:58:26.900Z,20.37
2022-08-19T06:03:29.947Z,23.67
2022-08-19T06:08:34.243Z,21.83
2022-08-19T06:13:36.864Z,24.77
2022-08-19T06:18:38.665Z,19.70
2022-08-19T06:23:40.504Z,18.80
2022-08-19T06:28:45.982Z,20.70
2022-08-19T06:33:48.885Z,17.60
2022-08-19T06:38:52.126Z,18.23
2022-08-19T06:43:55.725Z,18.53
2022-08-19T06:48:58.806Z,17.53
2022-08-19T06:54:00.768Z,17.07
2022-08-19T06:59:09.165Z,16.30
2022-08-19T07:04:12.156Z,17.13
2022-08-19T07:09:18.322Z,16.23
2022-08-19T07:14:26.236Z,18.03
2022-08-19T07:19:28.406Z,15.20
2022-08-19T07:24:33.534Z,14.70
2022-08-19T07:29:36.555Z,13.90
2022-08-19T07:34:40.105Z,12.53
2022-08-19T07:39:41.956Z,18.70
2022-08-19T07:44:50.216Z,13.10
2022-08-19T07:49:52.712Z,16.00
2022-08-19T07:54:54.447Z,12.63
2022-08-19T07:59:57.139Z,12.73
2022-08-19T08:05:17.425Z,13.43
2022-08-19T08:10:21.217Z,9.67
2022-08-19T08:15:23.452Z,6.27
2022-08-19T08:20:26.912Z,7.43
2022-08-19T08:25:28.783Z,7.57
2022-08-19T08:30:36.803Z,7.10
2022-08-19T08:35:39.864Z,7.23
2022-08-19T08:41:04.574Z,10.90
2022-08-19T08:46:30.366Z,7.50
2022-08-19T08:56:45.210Z,8.30
2022-08-19T09:01:47.010Z,9.40
2022-08-19T09:06:58.932Z,7.03
2022-08-19T09:12:26.918Z,7.27
2022-08-19T09:17:32.053Z,6.50
2022-08-19T09:22:34.179Z,5.77
2022-08-19T09:27:42.384Z,7.63
2022-08-19T09:32:46.194Z,5.97
2022-08-19T09:37:48.103Z,7.83
2022-08-19T09:42:52.558Z,6.30
2022-08-19T09:47:55.603Z,4.90
2022-08-19T09:52:57.991Z,6.33
2022-08-19T09:58:01.695Z,15.43
2022-08-19T10:03:03.477Z,7.50
2022-08-19T10:08:05.291Z,6.00
2022-08-19T10:13:18.663Z,5.20
2022-08-19T10:18:21.912Z,9.80
2022-08-19T10:23:23.640Z,6.27
2022-08-19T10:28:25.352Z,7.00
2022-08-19T10:33:53.517Z,6.13
2022-08-19T10:38:56.708Z,7.17
2022-08-19T10:44:04.211Z,5.43
2022-08-19T10:49:06.663Z,5.80
2022-08-19T10:54:12.597Z,6.50
2022-08-19T10:59:15.214Z,5.53
2022-08-19T11:04:18.583Z,5.10
2022-08-19T11:09:30.528Z,4.70
2022-08-19T11:14:35.570Z,4.40
2022-08-19T11:19:37.327Z,4.63
2022-08-19T11:24:39.259Z,3.00
2022-08-19T11:29:41.282Z,3.60
2022-08-19T11:34:43.271Z,3.77
2022-08-19T11:39:45.172Z,3.45
2022-08-19T11:44:53.560Z,4.30
2022-08-19T11:49:55.352Z,3.50
2022-08-19T11:54:57.082Z,5.07
2022-08-19T11:59:58.953Z,3.72
2022-08-19T12:05:03.834Z,10.33
2022-08-19T12:10:05.750Z,3.63
2022-08-19T12:15:08.233Z,5.33
2022-08-19T12:20:11.790Z,4.40
2022-08-19T12:25:13.550Z,4.00
2022-08-19T12:30:15.488Z,4.13
2022-08-19T12:35:17.320Z,4.13
2022-08-19T12:40:20.152Z,3.57
2022-08-19T12:45:22.722Z,3.70
2022-08-19T12:50:24.621Z,3.72
2022-08-19T12:55:26.387Z,3.63
2022-08-19T13:00:28.833Z,4.27
2022-08-19T13:05:34.272Z,4.33
2022-08-19T13:10:37.281Z,3.47
2022-08-19T13:15:41.139Z,4.03
2022-08-19T13:20:43.583Z,4.30
2022-08-19T13:26:02.499Z,3.42
2022-08-19T13:31:22.932Z,3.70
2022-08-19T13:36:24.916Z,4.60
2022-08-19T13:41:27.813Z,3.70
2022-08-19T13:46:30.559Z,4.43
2022-08-19T13:51:32.272Z,3.97
2022-08-19T13:56:33.974Z,4.53
2022-08-19T14:01:37.514Z,3.70
2022-08-19T14:06:39.314Z,5.03
2022-08-19T14:11:41.064Z,3.70
2022-08-19T14:16:43.833Z,4.57
2022-08-19T14:21:45.519Z,3.83
2022-08-19T14:26:47.410Z,3.77
2022-08-19T14:31:49.378Z,5.07
2022-08-19T14:36:51.345Z,4.17
2022-08-19T14:41:53.955Z,6.33
2022-08-19T14:46:55.695Z,7.03
2022-08-19T14:51:57.574Z,6.27
2022-08-19T14:56:59.580Z,6.03
2022-08-19T15:02:33.597Z,20.20
2022-08-19T15:07:23.265Z,4.93
2022-08-19T15:12:30.009Z,4.77
2022-08-19T15:17:43.739Z,5.15
2022-08-19T15:22:48.115Z,6.47
2022-08-19T15:27:52.970Z,5.15
2022-08-19T15:32:56.051Z,6.35
2022-08-19T15:37:58.961Z,6.60
2022-08-19T15:43:00.788Z,4.28
2022-08-19T15:48:04.215Z,5.55
2022-08-19T15:53:09.236Z,4.93
2022-08-19T15:58:32.213Z,4.50
2022-08-19T16:03:52.672Z,4.77
2022-08-19T16:09:02.061Z,5.10
2022-08-19T16:14:04.051Z,4.27
2022-08-19T16:19:11.886Z,5.43
2022-08-19T16:24:16.562Z,5.83
2022-08-19T16:29:30.253Z,5.43
2022-08-19T16:34:38.102Z,4.27
2022-08-19T16:39:40.443Z,5.70
2022-08-19T16:44:46.008Z,5.80
2022-08-19T16:49:53.620Z,6.23
2022-08-19T16:54:57.009Z,5.57
2022-08-19T16:59:58.784Z,6.33
2022-08-19T17:05:00.849Z,6.23
2022-08-19T17:10:04.488Z,5.60
2022-08-19T17:15:08.327Z,6.23
2022-08-19T17:20:10.435Z,6.00
2022-08-19T17:25:12.185Z,6.03
2022-08-19T17:30:13.988Z,6.40
2022-08-19T17:35:24.231Z,7.80
2022-08-19T17:40:26.819Z,5.53
2022-08-19T17:45:32.047Z,9.30
2022-08-19T17:50:35.469Z,6.43
2022-08-19T17:55:37.235Z,7.13
2022-08-19T18:00:39.395Z,7.63
2022-08-19T18:05:56.514Z,7.97
2022-08-19T18:10:59.107Z,9.47
2022-08-19T18:16:01.332Z,6.07
2022-08-19T18:21:03.446Z,6.67
2022-08-19T18:26:05.729Z,11.27
2022-08-19T18:31:07.902Z,7.67
2022-08-19T18:36:09.789Z,8.70
2022-08-19T18:41:29.873Z,6.37
2022-08-19T18:46:51.512Z,6.07
2022-08-19T18:51:54.077Z,6.13
2022-08-19T18:56:55.879Z,6.93
2022-08-19T19:01:58.953Z,6.80
2022-08-19T19:07:00.758Z,5.80
2022-08-19T19:12:04.372Z,6.07
2022-08-19T19:17:11.258Z,6.37
2022-08-19T19:22:17.522Z,6.23
2022-08-19T19:27:20.587Z,7.27
2022-08-19T19:32:28.372Z,12.10
2022-08-19T19:37:30.100Z,12.47
2022-08-19T19:42:31.786Z,9.03
2022-08-19T19:47:33.486Z,21.23
2022-08-19T19:52:35.197Z,16.33
2022-08-19T19:57:39.971Z,11.97
2022-08-19T20:02:46.638Z,9.27
2022-08-19T20:08:11.599Z,9.27
2022-08-19T20:13:15.513Z,15.73
2022-08-19T20:18:17.306Z,11.07
2022-08-19T20:23:21.693Z,13.27
2022-08-19T20:28:23.554Z,51.73
2022-08-19T20:33:27.549Z,15.00
2022-08-19T20:38:29.301Z,11.53
2022-08-19T20:43:31.234Z,11.50
2022-08-19T20:48:33.164Z,23.13
2022-08-19T20:53:34.998Z,21.70
2022-08-19T20:58:38.010Z,16.17
2022-08-19T21:03:44.119Z,12.87
2022-08-19T21:08:46.092Z,15.23
2022-08-19T21:13:50.849Z,15.70
2022-08-19T21:18:52.604Z,15.17
2022-08-19T21:23:54.380Z,15.00
2022-08-19T21:28:56.130Z,14.10
2022-08-19T21:33:57.894Z,15.37
2022-08-19T21:38:59.751Z,15.60
2022-08-19T21:44:01.696Z,19.33
2022-08-19T21:49:05.276Z,16.00
2022-08-19T21:54:07.017Z,16.53
2022-08-19T21:59:16.830Z,15.03
2022-08-19T22:04:20.154Z,14.43
2022-08-19T22:09:21.927Z,14.43
2022-08-19T22:14:23.669Z,16.17
2022-08-19T22:19:25.387Z,15.20
2022-08-19T22:24:27.352Z,16.37
2022-08-19T22:29:33.867Z,16.23
2022-08-19T22:34:36.177Z,14.60
2022-08-19T22:39:38.032Z,17.13
2022-08-19T22:44:39.942Z,18.33
2022-08-19T22:49:41.680Z,16.23
2022-08-19T22:54:45.827Z,16.50
2022-08-19T22:59:49.516Z,16.90
2022-08-19T23:04:51.806Z,18.53
2022-08-19T23:09:53.576Z,16.97
2022-08-19T23:14:55.445Z,16.20
2022-08-19T23:19:57.283Z,16.47
2022-08-19T23:25:09.422Z,16.27
2022-08-19T23:30:26.687Z,15.87
2022-08-19T23:35:33.588Z,17.17
2022-08-19T23:40:37.085Z,18.27
2022-08-19T23:45:40.354Z,18.10
2022-08-19T23:50:44.743Z,18.03
2022-08-19T23:55:48.034Z,16.90
